Time;durP1;ratioP1;P1;durP2;ratioP2;P2;SDS_P1;SDS_P2;PMS_P1;PMS_P2;Temp;Humidity;BMP_temperature;BMP_pressure;BME280_temperature;BME280_humidity;BME280_pressure;Samples;Min_cycle;Max_cycle;Signal;HPM_P1;HPM_P2
2022/05/12 00:00:19;;;;;;;11.07;5.03;;;18.10;99.90;;;;;;4962582;28;20086;-72
2022/05/12 00:02:46;;;;;;;9.13;4.72;;;18.10;99.90;;;;;;4964248;28;20126;-71
2022/05/12 00:05:14;;;;;;;9.95;5.25;;;18.20;99.90;;;;;;4969730;28;20049;-71
2022/05/12 00:07:43;;;;;;;11.63;4.57;;;18.30;99.90;;;;;;4972578;28;20436;-72
2022/05/12 00:10:13;;;;;;;6.47;4.30;;;18.30;99.90;;;;;;4953329;28;20093;-72
2022/05/12 00:12:41;;;;;;;3.90;2.55;;;18.40;99.90;;;;;;4971141;28;20485;-72
2022/05/12 00:15:13;;;;;;;9.88;5.05;;;18.40;99.90;;;;;;4971192;28;20039;-71
2022/05/12 00:17:41;;;;;;;9.65;5.88;;;18.40;99.90;;;;;;4966654;28;20039;-71
2022/05/12 00:20:10;;;;;;;4.20;2.80;;;18.50;99.90;;;;;;4971258;28;20069;-72
2022/05/12 00:22:37;;;;;;;8.07;3.60;;;18.50;99.90;;;;;;4969549;28;20033;-72
2022/05/12 00:25:09;;;;;;;9.35;5.07;;;18.50;99.90;;;;;;4969436;28;20093;-72
2022/05/12 00:27:37;;;;;;;5.15;2.70;;;18.60;99.90;;;;;;4967856;28;20058;-72
2022/05/12 00:30:09;;;;;;;7.38;4.93;;;18.50;99.90;;;;;;4970405;28;20506;-72
2022/05/12 00:32:38;;;;;;;6.72;3.72;;;18.60;99.90;;;;;;4970245;28;20035;-72
2022/05/12 00:35:07;;;;;;;5.47;2.58;;;18.60;99.90;;;;;;4970665;28;20070;-72
2022/05/12 00:37:35;;;;;;;8.20;4.00;;;18.50;99.90;;;;;;4970049;28;20085;-71
2022/05/12 00:40:03;;;;;;;8.73;3.05;;;18.60;99.90;;;;;;4968149;28;20038;-72
2022/05/12 00:42:30;;;;;;;3.88;1.77;;;18.50;99.90;;;;;;4967687;28;20030;-71
2022/05/12 00:44:58;;;;;;;6.50;3.63;;;18.60;99.90;;;;;;4968399;28;20108;-71
2022/05/12 00:47:25;;;;;;;8.75;4.57;;;18.70;99.90;;;;;;4970291;28;20486;-72
2022/05/12 00:49:54;;;;;;;6.97;3.85;;;18.70;99.90;;;;;;4971749;28;20040;-72
2022/05/12 00:52:26;;;;;;;7.80;4.18;;;18.80;99.90;;;;;;4968475;28;20074;-72
2022/05/12 00:54:53;;;;;;;7.50;3.17;;;18.80;99.90;;;;;;4967636;28;20465;-72
2022/05/12 00:57:44;;;;;;;4.60;2.67;;;18.90;99.90;;;;;;4969695;28;20117;-72
2022/05/12 01:00:13;;;;;;;4.85;3.25;;;19.00;99.90;;;;;;4959853;28;20039;-72
2022/05/12 01:02:45;;;;;;;8.50;2.85;;;19.00;99.90;;;;;;4970011;28;20043;-72
2022/05/12 01:05:14;;;;;;;5.18;2.83;;;19.10;99.90;;;;;;4969651;28;20110;-72
2022/05/12 01:07:41;;;;;;;6.43;4.30;;;19.20;99.90;;;;;;4968836;28;20026;-72
2022/05/12 01:10:09;;;;;;;8.23;4.72;;;19.20;99.90;;;;;;4971026;28;20026;-72
2022/05/12 01:12:44;;;;;;;6.68;3.22;;;19.30;99.90;;;;;;4970805;28;20030;-72
2022/05/12 01:15:12;;;;;;;7.38;3.78;;;19.30;99.90;;;;;;4969794;28;20094;-72
2022/05/12 01:17:40;;;;;;;7.75;3.53;;;19.40;99.90;;;;;;4966517;28;20038;-71
2022/05/12 01:20:07;;;;;;;7.78;4.38;;;19.40;99.90;;;;;;4969679;28;20049;-72
2022/05/12 01:22:43;;;;;;;4.90;3.67;;;19.50;99.90;;;;;;4968537;28;20042;-72
2022/05/12 01:25:15;;;;;;;8.23;3.97;;;19.50;99.90;;;;;;4967684;28;20038;-72
2022/05/12 01:27:42;;;;;;;7.97;4.75;;;19.60;99.90;;;;;;4969466;28;20035;-72
2022/05/12 01:30:13;;;;;;;7.05;5.28;;;19.60;99.90;;;;;;4969129;28;20057;-72
2022/05/12 01:32:43;;;;;;;9.13;5.85;;;19.70;99.90;;;;;;4969119;28;20027;-71
2022/05/12 01:35:12;;;;;;;7.25;4.45;;;19.80;99.90;;;;;;4967993;28;20041;-72
2022/05/12 01:37:41;;;;;;;8.27;5.70;;;19.80;99.90;;;;;;4967597;28;20070;-72
2022/05/12 01:40:11;;;;;;;9.38;4.30;;;19.90;99.90;;;;;;4968483;28;20042;-72
2022/05/12 01:42:39;;;;;;;7.50;2.47;;;19.90;99.90;;;;;;4974616;28;20034;-71
2022/05/12 01:45:07;;;;;;;6.80;3.35;;;19.90;99.90;;;;;;4970981;28;20038;-72
2022/05/12 01:47:36;;;;;;;6.00;2.85;;;19.90;99.90;;;;;;4965107;28;20426;-72
2022/05/12 01:50:05;;;;;;;6.78;3.28;;;19.90;99.90;;;;;;4970141;28;20048;-72
2022/05/12 01:52:32;;;;;;;6.10;3.63;;;19.90;99.90;;;;;;4973611;28;20030;-72
2022/05/12 01:55:37;;;;;;;6.72;3.03;;;20.00;99.90;;;;;;4971036;28;20030;-73
2022/05/12 01:58:19;;;;;;;8.65;2.90;;;20.10;99.90;;;;;;4974222;28;20121;-72
2022/05/12 02:00:47;;;;;;;7.68;2.95;;;20.20;99.90;;;;;;4960266;28;20051;-71
2022/05/12 02:03:14;;;;;;;5.05;3.58;;;20.20;99.90;;;;;;4976849;28;20493;-71
2022/05/12 02:05:42;;;;;;;8.35;2.83;;;20.20;99.90;;;;;;4974965;28;20035;-72
2022/05/12 02:08:12;;;;;;;4.20;3.13;;;20.20;99.90;;;;;;4975247;28;20026;-71
2022/05/12 02:10:41;;;;;;;9.68;3.47;;;20.10;99.90;;;;;;4976244;28;20035;-71
2022/05/12 02:13:13;;;;;;;5.20;4.43;;;20.10;99.90;;;;;;4973089;28;20070;-71
2022/05/12 02:15:42;;;;;;;9.07;2.40;;;20.10;99.90;;;;;;4975766;28;20042;-71
2022/05/12 02:18:10;;;;;;;6.90;2.08;;;20.00;99.90;;;;;;4975335;28;20035;-70
2022/05/12 02:20:38;;;;;;;5.40;2.50;;;20.00;99.90;;;;;;4974697;28;20127;-71
2022/05/12 02:23:05;;;;;;;4.88;1.95;;;20.00;99.90;;;;;;4973486;28;20026;-71
2022/05/12 02:25:33;;;;;;;7.15;3.15;;;20.00;99.90;;;;;;4974591;28;20477;-71
2022/05/12 02:28:00;;;;;;;6.38;2.25;;;19.90;99.90;;;;;;4973897;28;20115;-71
2022/05/12 02:30:30;;;;;;;5.93;2.38;;;19.80;99.90;;;;;;4973735;28;20041;-71
2022/05/12 02:32:58;;;;;;;7.13;3.42;;;19.80;99.90;;;;;;4973441;28;20037;-72
2022/05/12 02:35:26;;;;;;;3.95;1.73;;;19.80;99.90;;;;;;4974207;28;20089;-71
2022/05/12 02:37:54;;;;;;;4.00;1.65;;;19.70;99.90;;;;;;4973449;28;20421;-71
2022/05/12 02:40:25;;;;;;;5.88;2.10;;;19.70;99.90;;;;;;4975066;28;20054;-70
2022/05/12 02:42:52;;;;;;;4.13;1.98;;;19.80;99.90;;;;;;4974167;28;20035;-70
2022/05/12 02:45:20;;;;;;;4.70;1.98;;;19.80;99.90;;;;;;4973288;28;20121;-71
2022/05/12 02:47:47;;;;;;;5.70;2.90;;;19.90;99.90;;;;;;4973310;28;20023;-70
2022/05/12 02:50:17;;;;;;;5.25;2.13;;;19.90;99.90;;;;;;4975809;28;20027;-70
2022/05/12 02:52:44;;;;;;;3.28;2.17;;;19.90;99.90;;;;;;4975064;28;20031;-70
2022/05/12 02:55:13;;;;;;;5.38;1.80;;;19.90;99.90;;;;;;4975030;28;20422;-70
2022/05/12 02:57:40;;;;;;;5.18;1.83;;;20.00;99.90;;;;;;4972190;28;20412;-70
2022/05/12 03:00:11;;;;;;;7.32;2.72;;;20.00;99.90;;;;;;4965049;28;20038;-70
2022/05/12 03:02:38;;;;;;;8.32;2.00;;;19.90;99.90;;;;;;4987589;28;20066;-70
2022/05/12 03:05:06;;;;;;;3.33;1.48;;;19.90;99.90;;;;;;4978188;28;20441;-71
2022/05/12 03:07:34;;;;;;;3.95;1.90;;;19.80;99.90;;;;;;4993549;28;20117;-70
2022/05/12 03:10:01;;;;;;;7.05;2.85;;;19.80;99.90;;;;;;4995794;28;20130;-71
2022/05/12 03:12:30;;;;;;;3.42;2.35;;;19.70;99.90;;;;;;4994120;28;20038;-71
2022/05/12 03:14:57;;;;;;;6.78;2.35;;;19.80;99.90;;;;;;4991585;28;20030;-71
2022/05/12 03:17:24;;;;;;;3.75;2.05;;;19.80;99.90;;;;;;4984956;28;20030;-71
2022/05/12 03:19:52;;;;;;;7.63;3.45;;;19.90;99.90;;;;;;4994561;28;20015;-70
2022/05/12 03:22:19;;;;;;;6.38;2.30;;;19.90;99.90;;;;;;4973867;28;20034;-71
2022/05/12 03:24:46;;;;;;;6.40;2.85;;;20.00;99.90;;;;;;4994526;28;20038;-70
2022/05/12 03:27:14;;;;;;;5.18;2.35;;;20.10;99.90;;;;;;4987552;28;20045;-70
2022/05/12 03:29:42;;;;;;;5.28;2.92;;;20.10;99.90;;;;;;4987266;28;20033;-69
2022/05/12 03:32:10;;;;;;;7.28;3.13;;;20.10;99.90;;;;;;4990074;28;20046;-70
2022/05/12 03:34:41;;;;;;;7.95;3.08;;;20.10;99.90;;;;;;4993778;28;20023;-70
2022/05/12 03:37:10;;;;;;;7.82;3.15;;;20.10;99.90;;;;;;4984859;28;20033;-71
2022/05/12 03:39:39;;;;;;;5.00;3.10;;;20.10;99.90;;;;;;4983244;28;20046;-69
2022/05/12 03:42:08;;;;;;;5.72;2.67;;;20.20;99.90;;;;;;4993114;28;20061;-70
2022/05/12 03:44:47;;;;;;;5.22;2.22;;;20.20;99.90;;;;;;4993866;28;20092;-71
2022/05/12 03:47:33;;;;;;;5.32;3.10;;;20.20;99.90;;;;;;4983731;28;20121;-71
2022/05/12 03:50:08;;;;;;;4.60;2.65;;;20.20;99.90;;;;;;4990320;28;20040;-71
2022/05/12 03:52:36;;;;;;;5.53;2.88;;;20.20;99.90;;;;;;4992347;28;20106;-69
2022/05/12 03:55:05;;;;;;;9.05;3.13;;;20.30;99.90;;;;;;4992920;28;20036;-72
2022/05/12 03:57:32;;;;;;;6.55;3.88;;;20.30;99.90;;;;;;4994262;28;20022;-72
2022/05/12 04:00:00;;;;;;;5.53;2.92;;;20.30;99.90;;;;;;4992301;28;20022;-71
2022/05/12 04:02:27;;;;;;;8.43;2.65;;;20.30;99.90;;;;;;4973350;28;20051;-69
2022/05/12 04:04:54;;;;;;;6.85;2.63;;;20.30;99.90;;;;;;4971152;28;20085;-69
2022/05/12 04:07:23;;;;;;;4.63;3.08;;;20.20;99.90;;;;;;4968552;28;20042;-69
2022/05/12 04:09:51;;;;;;;5.60;2.90;;;20.20;99.90;;;;;;4968676;28;20475;-70
2022/05/12 04:12:18;;;;;;;4.10;2.55;;;20.20;99.90;;;;;;4968703;28;20030;-73
2022/05/12 04:14:46;;;;;;;7.22;3.05;;;20.20;99.90;;;;;;4968930;28;20037;-72
2022/05/12 04:17:16;;;;;;;3.55;2.80;;;20.10;99.90;;;;;;4967903;28;20409;-71
2022/05/12 04:19:45;;;;;;;4.88;1.92;;;20.10;99.90;;;;;;4970092;28;20031;-72
2022/05/12 04:22:14;;;;;;;6.30;2.90;;;20.10;99.90;;;;;;4966915;28;20031;-73
2022/05/12 04:24:41;;;;;;;8.20;2.17;;;20.00;99.90;;;;;;4971832;28;20121;-72
2022/05/12 04:27:08;;;;;;;6.00;2.40;;;20.10;99.90;;;;;;4969389;28;20481;-72
2022/05/12 04:29:42;;;;;;;10.52;3.00;;;20.10;99.90;;;;;;4970108;28;20039;-73
2022/05/12 04:32:10;;;;;;;7.43;2.85;;;20.20;99.90;;;;;;4969057;28;20034;-71
2022/05/12 04:37:31;;;;;;;5.97;2.17;;;20.20;99.90;;;;;;4970997;28;20342;-72
2022/05/12 04:40:11;;;;;;;4.88;3.22;;;20.30;99.90;;;;;;4971301;28;20334;-72
2022/05/12 04:42:39;;;;;;;7.47;3.13;;;20.30;99.90;;;;;;4970065;28;20039;-71
2022/05/12 04:45:09;;;;;;;6.85;2.88;;;20.20;99.90;;;;;;4971884;28;20026;-72
2022/05/12 04:47:39;;;;;;;6.47;2.92;;;20.20;99.90;;;;;;4969521;28;20504;-72
2022/05/12 04:50:10;;;;;;;6.05;2.47;;;20.30;99.90;;;;;;4972045;28;20043;-72
2022/05/12 04:52:37;;;;;;;6.22;2.75;;;20.30;99.90;;;;;;4969994;28;20027;-71
2022/05/12 04:55:05;;;;;;;7.22;3.10;;;20.30;99.90;;;;;;4970779;28;20489;-72
2022/05/12 04:57:39;;;;;;;5.07;2.80;;;20.40;99.90;;;;;;4969664;28;20018;-71
2022/05/12 05:00:10;;;;;;;14.77;5.68;;;20.30;99.90;;;;;;4964028;28;20367;-73
2022/05/12 05:02:38;;;;;;;6.90;3.58;;;20.40;99.90;;;;;;4985353;28;20417;-72
2022/05/12 05:05:06;;;;;;;8.95;3.70;;;20.30;99.90;;;;;;4991482;28;20088;-73
2022/05/12 05:07:33;;;;;;;8.02;4.53;;;20.30;99.90;;;;;;4990911;28;20040;-74
2022/05/12 05:10:02;;;;;;;11.00;4.80;;;20.30;99.90;;;;;;4990685;28;20101;-73
2022/05/12 05:12:31;;;;;;;7.53;3.78;;;20.30;99.90;;;;;;4987922;28;20034;-73
2022/05/12 05:14:58;;;;;;;7.88;2.92;;;20.30;99.90;;;;;;4986638;28;20033;-72
2022/05/12 05:17:27;;;;;;;8.80;3.50;;;20.20;99.90;;;;;;4989292;28;20038;-73
2022/05/12 05:19:54;;;;;;;4.13;3.63;;;20.20;99.90;;;;;;4991758;28;20041;-72
2022/05/12 05:22:22;;;;;;;6.65;4.55;;;20.10;99.90;;;;;;4988856;28;20453;-73
2022/05/12 05:24:49;;;;;;;7.55;3.55;;;20.10;99.90;;;;;;4990483;28;20033;-73
2022/05/12 05:27:16;;;;;;;8.40;3.67;;;20.00;99.90;;;;;;4988564;28;20026;-73
2022/05/12 05:29:44;;;;;;;8.40;3.42;;;20.00;99.90;;;;;;4993853;28;20066;-72
2022/05/12 05:32:12;;;;;;;9.80;3.55;;;20.00;99.90;;;;;;4991682;28;20515;-73
2022/05/12 05:34:39;;;;;;;5.28;3.13;;;20.00;99.90;;;;;;4993674;28;20085;-73
2022/05/12 05:37:07;;;;;;;6.70;3.33;;;19.90;99.90;;;;;;4991516;28;20121;-74
2022/05/12 05:39:35;;;;;;;5.18;3.15;;;19.90;99.90;;;;;;4993698;28;20133;-73
2022/05/12 05:42:07;;;;;;;7.55;3.83;;;19.80;99.90;;;;;;4990423;28;20026;-72
2022/05/12 05:44:35;;;;;;;5.32;2.78;;;19.80;99.90;;;;;;4993696;28;20040;-71
2022/05/12 05:47:02;;;;;;;6.57;2.70;;;19.80;99.90;;;;;;4992068;28;20647;-73
2022/05/12 05:49:30;;;;;;;6.80;3.88;;;19.80;99.90;;;;;;4993358;28;20069;-72
2022/05/12 05:54:44;;;;;;;8.07;3.45;;;19.70;99.90;;;;;;4993317;28;20073;-74
2022/05/12 05:57:12;;;;;;;7.13;3.50;;;19.70;99.90;;;;;;4990587;28;20063;-73
2022/05/12 05:59:39;;;;;;;7.85;5.15;;;19.70;99.90;;;;;;4986770;28;20556;-73
2022/05/12 06:02:07;;;;;;;6.43;4.47;;;19.70;99.90;;;;;;4976247;28;20082;-73
2022/05/12 06:04:34;;;;;;;8.52;3.47;;;19.70;99.90;;;;;;4973857;28;20500;-73
2022/05/12 06:07:02;;;;;;;6.32;4.00;;;19.70;99.90;;;;;;4972129;28;20031;-73
2022/05/12 06:09:29;;;;;;;13.85;9.23;;;19.60;99.90;;;;;;4972829;28;20118;-73
2022/05/12 06:11:57;;;;;;;12.05;8.27;;;19.60;99.90;;;;;;4972441;28;20054;-74
2022/05/12 06:14:24;;;;;;;8.93;4.80;;;19.60;99.90;;;;;;4972267;28;20034;-73
2022/05/12 06:16:52;;;;;;;6.82;4.95;;;19.60;99.90;;;;;;4971717;28;20497;-71
2022/05/12 06:19:19;;;;;;;8.82;4.85;;;19.60;99.90;;;;;;4972588;28;20082;-72
2022/05/12 06:21:47;;;;;;;8.10;4.22;;;19.50;99.90;;;;;;4971585;28;20089;-72
2022/05/12 06:24:14;;;;;;;11.27;5.75;;;19.50;99.90;;;;;;4973478;28;20066;-71
2022/05/12 06:26:41;;;;;;;10.15;6.28;;;19.50;99.90;;;;;;4968409;28;20481;-72
2022/05/12 06:29:08;;;;;;;8.40;5.75;;;19.50;99.90;;;;;;4972386;28;20050;-71
2022/05/12 06:31:36;;;;;;;10.70;4.35;;;19.50;99.90;;;;;;4970836;28;20035;-70
2022/05/12 06:34:03;;;;;;;8.23;4.45;;;19.50;99.90;;;;;;4973782;28;20022;-70
2022/05/12 06:36:31;;;;;;;9.80;4.85;;;19.50;99.90;;;;;;4971759;28;20085;-72
2022/05/12 06:38:58;;;;;;;8.35;4.63;;;19.50;99.90;;;;;;4971302;28;20038;-71
2022/05/12 06:41:26;;;;;;;6.65;4.68;;;19.50;99.90;;;;;;4971604;28;20054;-72
2022/05/12 06:43:54;;;;;;;6.70;3.95;;;19.40;99.90;;;;;;4973171;28;20039;-71
2022/05/12 06:46:22;;;;;;;6.65;3.72;;;19.50;99.90;;;;;;4971411;28;20077;-71
2022/05/12 06:48:51;;;;;;;6.65;4.22;;;19.40;99.90;;;;;;4972257;28;20023;-70
2022/05/12 06:51:18;;;;;;;10.25;4.53;;;19.40;99.90;;;;;;4971223;28;20490;-71
2022/05/12 06:53:46;;;;;;;8.65;4.43;;;19.50;99.90;;;;;;4972534;28;20031;-72
2022/05/12 06:56:14;;;;;;;6.97;4.22;;;19.50;99.90;;;;;;4971024;28;20027;-72
2022/05/12 06:58:42;;;;;;;8.38;4.28;;;19.50;99.90;;;;;;4971922;28;20390;-71
2022/05/12 07:01:10;;;;;;;4.95;4.13;;;19.40;99.90;;;;;;4969314;28;20034;-72
2022/05/12 07:03:38;;;;;;;8.90;4.35;;;19.40;99.90;;;;;;4992144;28;20141;-69
2022/05/12 07:06:06;;;;;;;6.32;4.20;;;19.40;99.90;;;;;;4989320;28;20035;-72
2022/05/12 07:08:37;;;;;;;8.05;4.60;;;19.30;99.90;;;;;;4989635;28;20038;-74
2022/05/12 07:11:04;;;;;;;8.35;3.47;;;19.30;99.90;;;;;;4981113;28;20045;-73
2022/05/12 07:13:32;;;;;;;6.80;4.28;;;19.30;99.90;;;;;;4991671;28;20729;-73
2022/05/12 07:15:59;;;;;;;10.63;4.53;;;19.30;99.90;;;;;;4984718;28;20031;-71
2022/05/12 07:18:26;;;;;;;8.02;4.10;;;19.40;99.90;;;;;;4990740;28;20106;-73
2022/05/12 07:26:36;;;;;;;8.30;4.60;;;19.30;99.90;;;;;;4989768;28;20080;-74
2022/05/12 07:29:16;;;;;;;11.32;5.88;;;19.30;99.90;;;;;;4991856;28;20136;-73
2022/05/12 07:31:44;;;;;;;8.80;4.53;;;19.30;99.90;;;;;;4983055;28;20046;-73
2022/05/12 07:34:13;;;;;;;10.40;4.45;;;19.20;99.90;;;;;;4990211;28;20107;-75
2022/05/12 07:36:44;;;;;;;9.15;5.20;;;19.20;99.90;;;;;;4988608;28;20057;-75
2022/05/12 07:39:12;;;;;;;9.88;5.15;;;19.20;99.90;;;;;;4991218;28;20052;-75
2022/05/12 07:41:41;;;;;;;11.38;5.40;;;19.10;99.90;;;;;;4989233;28;20089;-76
2022/05/12 07:44:18;;;;;;;15.50;7.40;;;19.10;99.90;;;;;;4991502;28;20045;-74
2022/05/12 07:46:47;;;;;;;12.02;5.47;;;19.10;99.90;;;;;;4984836;28;20477;-74
2022/05/12 07:49:15;;;;;;;9.07;4.70;;;19.00;99.90;;;;;;4991075;28;20052;-75
2022/05/12 07:51:43;;;;;;;8.18;4.97;;;19.00;99.90;;;;;;4989397;28;20038;-74
2022/05/12 07:54:10;;;;;;;11.98;5.18;;;18.90;99.90;;;;;;4991049;28;20045;-76
2022/05/12 07:56:38;;;;;;;8.93;5.50;;;19.00;99.90;;;;;;4988050;28;21586;-70
2022/05/12 07:59:05;;;;;;;9.65;5.57;;;19.00;99.90;;;;;;4988857;28;20029;-72
2022/05/12 08:01:33;;;;;;;9.45;5.57;;;19.00;99.90;;;;;;4979813;28;20507;-74
2022/05/12 08:04:00;;;;;;;10.65;5.40;;;18.90;99.90;;;;;;4990806;28;20503;-73
2022/05/12 08:06:28;;;;;;;9.73;5.82;;;18.90;99.90;;;;;;4989013;28;20035;-73
2022/05/12 08:08:55;;;;;;;10.15;5.57;;;18.90;99.90;;;;;;4990661;28;20575;-72
2022/05/12 08:11:23;;;;;;;10.32;4.82;;;18.90;99.90;;;;;;4990478;28;20060;-73
2022/05/12 08:13:51;;;;;;;11.77;5.50;;;18.90;99.90;;;;;;4989820;28;20370;-72
2022/05/12 08:16:20;;;;;;;7.35;4.75;;;18.90;99.90;;;;;;4990102;28;20026;-74
2022/05/12 08:18:49;;;;;;;11.35;5.32;;;18.90;99.90;;;;;;4990611;28;20025;-75
2022/05/12 08:21:23;;;;;;;9.77;6.40;;;18.90;99.90;;;;;;4989693;28;20073;-74
2022/05/12 08:23:51;;;;;;;10.85;5.65;;;18.90;99.90;;;;;;4990056;28;20037;-74
2022/05/12 08:26:19;;;;;;;12.40;5.97;;;18.90;99.90;;;;;;4989422;28;20030;-74
2022/05/12 08:28:49;;;;;;;7.95;4.43;;;18.90;99.90;;;;;;4990361;28;20071;-75
2022/05/12 08:31:17;;;;;;;9.57;5.45;;;18.80;99.90;;;;;;4989707;28;20068;-73
2022/05/12 08:33:44;;;;;;;12.10;6.55;;;18.80;99.90;;;;;;4988676;28;20065;-74
2022/05/12 08:36:12;;;;;;;15.88;7.90;;;18.90;99.90;;;;;;4988862;28;20045;-75
2022/05/12 08:38:44;;;;;;;8.23;5.47;;;18.90;99.90;;;;;;4990473;28;20791;-74
2022/05/12 08:41:30;;;;;;;11.80;6.45;;;18.80;99.90;;;;;;4989781;28;20030;-73
2022/05/12 08:44:02;;;;;;;9.57;5.20;;;18.80;99.90;;;;;;4990044;28;20197;-75
2022/05/12 08:46:38;;;;;;;9.23;5.75;;;18.80;99.90;;;;;;4988897;28;20740;-75
2022/05/12 08:49:26;;;;;;;11.43;6.20;;;18.80;99.90;;;;;;4990304;28;20034;-75
2022/05/12 08:52:10;;;;;;;10.65;5.47;;;18.80;99.90;;;;;;4989621;28;20116;-74
2022/05/12 08:54:42;;;;;;;9.43;6.32;;;18.80;99.90;;;;;;4989047;28;20081;-74
2022/05/12 08:57:54;;;;;;;11.50;6.60;;;18.80;99.90;;;;;;4989150;28;20026;-72
2022/05/12 09:00:21;;;;;;;10.70;6.43;;;18.70;99.90;;;;;;4926856;29;20399;-72
2022/05/12 09:03:42;;;;;;;9.05;6.93;;;18.70;99.90;;;;;;4978405;28;20056;-74
2022/05/12 09:06:46;;;;;;;11.38;7.22;;;18.70;99.90;;;;;;4949107;29;20035;-75
2022/05/12 09:09:23;;;;;;;12.93;7.15;;;18.70;99.90;;;;;;4990278;28;20103;-75
2022/05/12 09:12:23;;;;;;;12.60;7.13;;;18.70;99.90;;;;;;4989386;28;20385;-75
2022/05/12 09:15:17;;;;;;;13.85;7.40;;;18.70;99.90;;;;;;4954245;28;20038;-75
2022/05/12 09:17:54;;;;;;;14.35;7.68;;;18.70;99.90;;;;;;4989602;28;20049;-75
2022/05/12 09:20:23;;;;;;;11.82;7.28;;;18.70;99.90;;;;;;4989804;28;20081;-75
2022/05/12 09:22:51;;;;;;;8.48;6.25;;;18.70;99.90;;;;;;4989077;28;20034;-74
2022/05/12 09:25:42;;;;;;;13.80;5.85;;;18.70;99.90;;;;;;4988561;28;20060;-74
2022/05/12 09:28:33;;;;;;;8.18;4.72;;;18.70;99.90;;;;;;4989840;28;20034;-74
2022/05/12 09:31:15;;;;;;;16.92;4.65;;;18.70;99.90;;;;;;4972088;28;20082;-75
2022/05/12 09:33:45;;;;;;;11.00;5.38;;;18.70;99.90;;;;;;4989331;28;20416;-75
2022/05/12 09:36:24;;;;;;;9.48;4.78;;;18.70;99.90;;;;;;4987984;28;20382;-75
2022/05/12 09:38:54;;;;;;;10.15;4.88;;;18.70;99.90;;;;;;4990004;28;20027;-77
2022/05/12 09:41:37;;;;;;;12.65;5.22;;;18.80;99.90;;;;;;4989225;28;20045;-76
2022/05/12 09:44:27;;;;;;;16.50;5.70;;;18.70;99.90;;;;;;4990076;28;20424;-76
2022/05/12 09:47:17;;;;;;;10.60;5.50;;;18.70;99.90;;;;;;4987705;28;20092;-76
2022/05/12 09:49:47;;;;;;;10.40;5.15;;;18.70;99.90;;;;;;4989526;28;20030;-75
2022/05/12 09:52:24;;;;;;;9.43;5.25;;;18.70;99.90;;;;;;4989017;28;20035;-76
2022/05/12 09:55:18;;;;;;;17.60;5.78;;;18.70;99.90;;;;;;4989212;28;20035;-77
2022/05/12 09:58:25;;;;;;;15.73;5.55;;;18.70;99.90;;;;;;4988032;28;20046;-77
2022/05/12 10:01:09;;;;;;;10.98;4.68;;;18.70;99.90;;;;;;4964214;28;20054;-77
2022/05/12 10:09:33;;;;;;;9.70;4.30;;;18.60;99.90;;;;;;4989013;28;20049;-77
2022/05/12 10:12:36;;;;;;;11.20;4.57;;;18.60;99.90;;;;;;4988956;28;20038;-77
2022/05/12 10:15:18;;;;;;;12.05;5.00;;;18.60;99.90;;;;;;4931912;29;20191;-76
2022/05/12 10:17:51;;;;;;;13.05;5.50;;;18.60;99.90;;;;;;4986914;28;20034;-76
2022/05/12 10:20:25;;;;;;;16.05;6.10;;;18.70;99.90;;;;;;4992457;28;20034;-77
2022/05/12 10:23:08;;;;;;;11.50;5.35;;;18.70;99.90;;;;;;4992246;28;20026;-77
2022/05/12 10:25:47;;;;;;;14.07;6.47;;;18.70;99.90;;;;;;4992614;28;20378;-77
2022/05/12 10:28:51;;;;;;;10.68;7.05;;;18.70;99.90;;;;;;4974822;28;20038;-77
2022/05/12 10:31:36;;;;;;;13.60;6.28;;;18.70;99.90;;;;;;4981525;28;20148;-76
2022/05/12 10:34:18;;;;;;;12.15;5.57;;;18.70;99.90;;;;;;4992621;28;20034;-73
2022/05/12 10:36:46;;;;;;;9.82;5.88;;;18.70;99.90;;;;;;4991647;28;20038;-78
2022/05/12 10:39:34;;;;;;;14.10;6.95;;;18.70;99.90;;;;;;4992640;28;20030;-76
2022/05/12 10:42:32;;;;;;;13.20;6.75;;;18.70;99.90;;;;;;4984069;28;20084;-75
2022/05/12 10:45:06;;;;;;;12.52;7.13;;;18.70;99.90;;;;;;4991852;28;20026;-77
2022/05/12 10:47:42;;;;;;;11.48;6.75;;;18.70;99.90;;;;;;4991782;28;20113;-77
2022/05/12 10:50:22;;;;;;;12.50;6.63;;;18.70;99.90;;;;;;4991833;28;20026;-77
2022/05/12 10:53:29;;;;;;;12.55;6.65;;;18.70;99.90;;;;;;4991524;28;20034;-75
2022/05/12 10:56:08;;;;;;;14.02;7.85;;;18.70;99.90;;;;;;4930684;28;20038;-76
2022/05/12 10:59:11;;;;;;;12.10;8.48;;;18.70;99.90;;;;;;4992156;28;20050;-74
2022/05/12 11:01:46;;;;;;;12.50;7.53;;;18.70;99.90;;;;;;4977367;28;20149;-72
2022/05/12 11:04:16;;;;;;;13.32;7.00;;;18.70;99.90;;;;;;4973017;28;20110;-77
2022/05/12 11:06:57;;;;;;;12.35;7.75;;;18.70;99.90;;;;;;4971226;28;20611;-77
2022/05/12 11:09:30;;;;;;;15.40;8.15;;;18.70;99.90;;;;;;4972882;28;20041;-75
2022/05/12 11:12:05;;;;;;;14.20;8.63;;;18.70;99.90;;;;;;4970985;28;20109;-76
2022/05/12 11:14:44;;;;;;;15.50;8.20;;;18.70;99.90;;;;;;4972552;28;20481;-73
2022/05/12 11:17:20;;;;;;;11.48;6.97;;;18.70;99.90;;;;;;4971343;28;20042;-74
2022/05/12 11:20:00;;;;;;;13.23;7.65;;;18.70;99.90;;;;;;4971762;28;20536;-76
2022/05/12 11:22:43;;;;;;;12.10;8.30;;;18.60;99.90;;;;;;4971653;28;20065;-75
2022/05/12 11:25:45;;;;;;;16.08;7.88;;;18.60;99.90;;;;;;4971536;28;20034;-76
2022/05/12 11:31:40;;;;;;;14.05;7.13;;;18.60;99.90;;;;;;4969517;28;20093;-76
2022/05/12 11:34:11;;;;;;;12.90;7.18;;;18.60;99.90;;;;;;4972209;28;20053;-73
2022/05/12 11:36:41;;;;;;;10.32;6.30;;;18.60;99.90;;;;;;4969159;28;20047;-77
2022/05/12 11:39:31;;;;;;;8.82;6.32;;;18.50;99.90;;;;;;4971152;28;20051;-75
2022/05/12 11:42:15;;;;;;;13.80;9.00;;;18.50;99.90;;;;;;4970263;28;20026;-77
2022/05/12 11:45:03;;;;;;;11.75;5.90;;;18.50;99.90;;;;;;4970435;28;20053;-74
2022/05/12 11:47:58;;;;;;;11.32;6.90;;;18.50;99.90;;;;;;4969867;28;20043;-73
2022/05/12 11:50:34;;;;;;;12.73;6.50;;;18.50;99.90;;;;;;4970701;28;20121;-73
2022/05/12 11:53:01;;;;;;;10.30;5.85;;;18.50;99.90;;;;;;4970159;28;20097;-76
2022/05/12 11:55:30;;;;;;;14.40;7.75;;;18.50;99.90;;;;;;4973256;28;20133;-75
2022/05/12 11:58:11;;;;;;;12.35;7.15;;;18.50;99.90;;;;;;4974341;28;20422;-77
2022/05/12 12:00:41;;;;;;;10.75;7.20;;;18.60;99.90;;;;;;4963522;28;20042;-78
2022/05/12 12:03:28;;;;;;;13.88;8.93;;;18.50;99.90;;;;;;4988297;28;20067;-79
2022/05/12 12:06:04;;;;;;;11.93;7.85;;;18.60;99.90;;;;;;4984967;28;20097;-77
2022/05/12 12:08:45;;;;;;;13.77;8.43;;;18.60;99.90;;;;;;4986902;28;20049;-77
2022/05/12 12:11:19;;;;;;;13.90;9.45;;;18.60;99.90;;;;;;4972965;28;20382;-76
2022/05/12 12:13:53;;;;;;;14.45;9.15;;;18.60;99.90;;;;;;4989378;28;20025;-74
2022/05/12 12:16:26;;;;;;;14.10;7.45;;;18.60;99.90;;;;;;4982890;28;20117;-73
2022/05/12 12:18:57;;;;;;;13.45;7.18;;;18.60;99.90;;;;;;4989343;28;20033;-77
2022/05/12 12:21:45;;;;;;;13.40;7.60;;;18.60;99.90;;;;;;4985780;28;20228;-75
2022/05/12 12:24:21;;;;;;;9.88;6.10;;;18.60;99.90;;;;;;4989852;28;20032;-77
2022/05/12 12:26:54;;;;;;;12.70;6.57;;;18.60;99.90;;;;;;4986763;28;20030;-77
2022/05/12 12:29:45;;;;;;;8.88;6.47;;;18.60;99.90;;;;;;4990906;28;20022;-73
2022/05/12 12:32:29;;;;;;;10.98;5.63;;;18.60;99.90;;;;;;4980062;28;20448;-74
2022/05/12 12:35:17;;;;;;;12.32;6.47;;;18.60;99.90;;;;;;4987578;28;20026;-75
2022/05/12 12:37:48;;;;;;;13.10;5.88;;;18.50;99.90;;;;;;4992941;28;20049;-75
2022/05/12 12:40:34;;;;;;;15.57;6.95;;;18.60;99.90;;;;;;4995669;28;21553;-76
2022/05/12 12:43:16;;;;;;;13.02;8.40;;;18.60;99.90;;;;;;4987632;28;20408;-78
2022/05/12 12:45:52;;;;;;;12.10;6.28;;;18.60;99.90;;;;;;4988352;28;20022;-75
2022/05/12 12:48:32;;;;;;;11.25;6.53;;;18.60;99.90;;;;;;4973909;28;20033;-77
2022/05/12 12:51:01;;;;;;;10.20;5.95;;;18.60;99.90;;;;;;4984711;28;20031;-77
2022/05/12 12:56:30;;;;;;;14.43;7.47;;;18.60;99.90;;;;;;4984721;28;20064;-77
2022/05/12 12:59:04;;;;;;;10.88;6.47;;;18.60;99.90;;;;;;4988595;28;20027;-77
2022/05/12 13:01:56;;;;;;;14.95;7.68;;;18.60;99.90;;;;;;4982148;28;20042;-75
2022/05/12 13:04:27;;;;;;;12.65;7.25;;;18.60;99.90;;;;;;4990638;28;20030;-75
2022/05/12 13:07:04;;;;;;;7.70;6.22;;;18.60;99.90;;;;;;4985665;28;20061;-77
2022/05/12 13:09:38;;;;;;;11.48;6.47;;;18.60;99.90;;;;;;4988037;28;20037;-75
2022/05/12 13:12:14;;;;;;;9.25;6.32;;;18.60;99.90;;;;;;4988144;28;20034;-73
2022/05/12 13:14:42;;;;;;;9.75;5.80;;;18.60;99.90;;;;;;4989901;28;20030;-73
2022/05/12 13:17:18;;;;;;;11.63;5.93;;;18.60;99.90;;;;;;4988267;28;20030;-74
2022/05/12 13:19:46;;;;;;;13.32;6.80;;;18.60;99.90;;;;;;4988166;28;20027;-73
2022/05/12 13:22:29;;;;;;;12.57;5.60;;;18.60;99.90;;;;;;4981921;28;20034;-76
2022/05/12 13:24:57;;;;;;;8.57;5.47;;;18.60;99.90;;;;;;4990706;28;20023;-74
2022/05/12 13:27:38;;;;;;;11.90;6.22;;;18.60;99.90;;;;;;4987845;28;20027;-74
2022/05/12 13:30:16;;;;;;;12.82;6.75;;;18.60;99.90;;;;;;4987968;28;20125;-77
2022/05/12 13:32:55;;;;;;;7.95;5.30;;;18.60;99.90;;;;;;4987691;28;20042;-76
2022/05/12 13:35:26;;;;;;;19.17;6.45;;;18.60;99.90;;;;;;4989410;28;20030;-78